sensor_id;sensor_type;location;lat;lon;timestamp;temperature;humidity
21834;DHT22;11079;51.092;3.458;2023-09-19T00:00:38;15.10;99.90
21834;DHT22;11079;51.092;3.458;2023-09-19T00:03:06;15.10;99.90
21834;DHT22;11079;51.092;3.458;2023-09-19T00:05:34;15.20;99.90
21834;DHT22;11079;51.092;3.458;2023-09-19T00:08:01;15.10;99.90
21834;DHT22;11079;51.092;3.458;2023-09-19T00:10:30;15.10;99.90
21834;DHT22;11079;51.092;3.458;2023-09-19T00:13:00;15.20;99.90
21834;DHT22;11079;51.092;3.458;2023-09-19T00:15:35;15.10;99.90
21834;DHT22;11079;51.092;3.458;2023-09-19T00:18:03;15.20;99.90
21834;DHT22;11079;51.092;3.458;2023-09-19T00:20:29;15.20;99.90
21834;DHT22;11079;51.092;3.458;2023-09-19T00:22:55;15.20;99.90
21834;DHT22;11079;51.092;3.458;2023-09-19T00:25:21;15.20;99.90
21834;DHT22;11079;51.092;3.458;2023-09-19T00:27:47;15.20;99.90
21834;DHT22;11079;51.092;3.458;2023-09-19T00:30:15;15.20;99.90
21834;DHT22;11079;51.092;3.458;2023-09-19T00:32:47;15.20;99.90
21834;DHT22;11079;51.092;3.458;2023-09-19T00:35:16;15.20;99.90
21834;DHT22;11079;51.092;3.458;2023-09-19T00:37:43;15.10;99.90
21834;DHT22;11079;51.092;3.458;2023-09-19T00:40:09;15.10;99.90
21834;DHT22;11079;51.092;3.458;2023-09-19T00:42:42;15.10;99.90
21834;DHT22;11079;51.092;3.458;2023-09-19T00:45:08;15.10;99.90
21834;DHT22;11079;51.092;3.458;2023-09-19T00:47:51;14.90;99.90
21834;DHT22;11079;51.092;3.458;2023-09-19T00:50:18;14.80;99.90
21834;DHT22;11079;51.092;3.458;2023-09-19T00:52:46;14.90;99.90
21834;DHT22;11079;51.092;3.458;2023-09-19T00:55:14;14.90;99.90
21834;DHT22;11079;51.092;3.458;2023-09-19T00:57:40;14.90;99.90
21834;DHT22;11079;51.092;3.458;2023-09-19T01:00:07;14.90;99.90
21834;DHT22;11079;51.092;3.458;2023-09-19T01:02:34;14.80;99.90
21834;DHT22;11079;51.092;3.458;2023-09-19T01:05:00;14.80;99.90
21834;DHT22;11079;51.092;3.458;2023-09-19T01:07:30;14.90;99.90
21834;DHT22;11079;51.092;3.458;2023-09-19T01:10:02;14.90;99.90
21834;DHT22;11079;51.092;3.458;2023-09-19T01:12:43;14.90;99.90
21834;DHT22;11079;51.092;3.458;2023-09-19T01:23:53;14.50;99.90
21834;DHT22;11079;51.092;3.458;2023-09-19T01:29:23;14.60;99.90
21834;DHT22;11079;51.092;3.458;2023-09-19T01:32:01;14.60;99.90
21834;DHT22;11079;51.092;3.458;2023-09-19T01:35:01;14.70;99.90
21834;DHT22;11079;51.092;3.458;2023-09-19T01:37:30;14.70;99.90
21834;DHT22;11079;51.092;3.458;2023-09-19T01:40:06;14.60;99.90
21834;DHT22;11079;51.092;3.458;2023-09-19T01:45:52;14.50;99.90
21834;DHT22;11079;51.092;3.458;2023-09-19T01:48:41;14.50;99.90
21834;DHT22;11079;51.092;3.458;2023-09-19T01:51:10;14.60;99.90
21834;DHT22;11079;51.092;3.458;2023-09-19T01:53:45;14.70;99.90
21834;DHT22;11079;51.092;3.458;2023-09-19T01:59:16;14.60;99.90
21834;DHT22;11079;51.092;3.458;2023-09-19T02:01:46;14.60;99.90
21834;DHT22;11079;51.092;3.458;2023-09-19T02:04:12;14.80;99.90
21834;DHT22;11079;51.092;3.458;2023-09-19T02:06:41;14.70;99.90
21834;DHT22;11079;51.092;3.458;2023-09-19T02:09:07;14.70;99.90
21834;DHT22;11079;51.092;3.458;2023-09-19T02:11:35;14.80;99.90
21834;DHT22;11079;51.092;3.458;2023-09-19T02:14:01;14.80;99.90
21834;DHT22;11079;51.092;3.458;2023-09-19T02:16:28;14.80;99.90
21834;DHT22;11079;51.092;3.458;2023-09-19T02:18:54;14.90;99.90
21834;DHT22;11079;51.092;3.458;2023-09-19T02:21:19;14.90;99.90
21834;DHT22;11079;51.092;3.458;2023-09-19T02:23:47;15.00;99.90
21834;DHT22;11079;51.092;3.458;2023-09-19T02:26:13;15.00;99.90
21834;DHT22;11079;51.092;3.458;2023-09-19T02:28:39;14.90;99.90
21834;DHT22;11079;51.092;3.458;2023-09-19T02:31:05;15.00;99.90
21834;DHT22;11079;51.092;3.458;2023-09-19T02:33:31;15.00;99.90
21834;DHT22;11079;51.092;3.458;2023-09-19T02:36:00;15.00;99.90
21834;DHT22;11079;51.092;3.458;2023-09-19T02:38:26;15.10;99.90
21834;DHT22;11079;51.092;3.458;2023-09-19T02:40:52;15.10;99.90
21834;DHT22;11079;51.092;3.458;2023-09-19T02:43:18;15.10;99.90
21834;DHT22;11079;51.092;3.458;2023-09-19T02:45:48;15.20;99.90
21834;DHT22;11079;51.092;3.458;2023-09-19T02:48:15;15.20;99.90
21834;DHT22;11079;51.092;3.458;2023-09-19T02:50:42;15.20;99.90
21834;DHT22;11079;51.092;3.458;2023-09-19T02:53:08;15.20;99.90
21834;DHT22;11079;51.092;3.458;2023-09-19T02:55:35;15.20;99.90
21834;DHT22;11079;51.092;3.458;2023-09-19T02:58:02;15.30;99.90
21834;DHT22;11079;51.092;3.458;2023-09-19T03:00:30;15.40;99.90
21834;DHT22;11079;51.092;3.458;2023-09-19T03:02:56;15.50;99.90
21834;DHT22;11079;51.092;3.458;2023-09-19T03:05:23;15.50;99.90
21834;DHT22;11079;51.092;3.458;2023-09-19T03:07:49;15.50;99.90
21834;DHT22;11079;51.092;3.458;2023-09-19T03:10:17;15.50;99.90
21834;DHT22;11079;51.092;3.458;2023-09-19T03:12:43;15.60;99.90
21834;DHT22;11079;51.092;3.458;2023-09-19T03:15:09;15.50;99.90
21834;DHT22;11079;51.092;3.458;2023-09-19T03:17:36;15.30;99.90
21834;DHT22;11079;51.092;3.458;2023-09-19T03:20:03;15.30;99.90
21834;DHT22;11079;51.092;3.458;2023-09-19T03:22:35;15.40;99.90
21834;DHT22;11079;51.092;3.458;2023-09-19T03:25:01;15.50;99.90
21834;DHT22;11079;51.092;3.458;2023-09-19T03:27:26;15.40;99.90
21834;DHT22;11079;51.092;3.458;2023-09-19T03:29:52;15.50;99.90
21834;DHT22;11079;51.092;3.458;2023-09-19T03:32:19;15.60;99.90
21834;DHT22;11079;51.092;3.458;2023-09-19T03:34:45;15.70;99.90
21834;DHT22;11079;51.092;3.458;2023-09-19T03:37:10;15.70;99.90
21834;DHT22;11079;51.092;3.458;2023-09-19T03:39:36;15.70;99.90
21834;DHT22;11079;51.092;3.458;2023-09-19T03:42:02;15.50;99.90
21834;DHT22;11079;51.092;3.458;2023-09-19T03:44:29;15.50;99.90
21834;DHT22;11079;51.092;3.458;2023-09-19T03:46:55;15.40;99.90
21834;DHT22;11079;51.092;3.458;2023-09-19T03:49:22;15.40;99.90
21834;DHT22;11079;51.092;3.458;2023-09-19T03:51:47;15.30;99.90
21834;DHT22;11079;51.092;3.458;2023-09-19T03:54:13;15.10;99.90
21834;DHT22;11079;51.092;3.458;2023-09-19T03:56:38;14.90;99.90
21834;DHT22;11079;51.092;3.458;2023-09-19T03:59:04;14.90;99.90
21834;DHT22;11079;51.092;3.458;2023-09-19T04:01:30;14.80;99.90
21834;DHT22;11079;51.092;3.458;2023-09-19T04:03:58;14.90;99.90
21834;DHT22;11079;51.092;3.458;2023-09-19T04:06:24;14.80;99.90
21834;DHT22;11079;51.092;3.458;2023-09-19T04:08:50;14.70;99.90
21834;DHT22;11079;51.092;3.458;2023-09-19T04:11:15;14.70;99.90
21834;DHT22;11079;51.092;3.458;2023-09-19T04:13:41;14.60;99.90
21834;DHT22;11079;51.092;3.458;2023-09-19T04:16:07;14.60;99.90
21834;DHT22;11079;51.092;3.458;2023-09-19T04:18:33;14.50;99.90
21834;DHT22;11079;51.092;3.458;2023-09-19T04:21:02;14.40;99.90
21834;DHT22;11079;51.092;3.458;2023-09-19T04:23:30;14.40;99.90
21834;DHT22;11079;51.092;3.458;2023-09-19T04:25:56;14.40;99.90
21834;DHT22;11079;51.092;3.458;2023-09-19T04:28:23;14.50;99.90
21834;DHT22;11079;51.092;3.458;2023-09-19T04:30:49;14.60;99.90
21834;DHT22;11079;51.092;3.458;2023-09-19T04:33:15;14.70;99.90
21834;DHT22;11079;51.092;3.458;2023-09-19T04:35:41;14.70;99.90
21834;DHT22;11079;51.092;3.458;2023-09-19T04:38:08;14.70;99.90
21834;DHT22;11079;51.092;3.458;2023-09-19T04:40:34;14.70;99.90
21834;DHT22;11079;51.092;3.458;2023-09-19T04:43:00;14.60;99.90
21834;DHT22;11079;51.092;3.458;2023-09-19T04:45:26;14.70;99.90
21834;DHT22;11079;51.092;3.458;2023-09-19T04:47:52;14.50;99.90
21834;DHT22;11079;51.092;3.458;2023-09-19T04:50:18;14.50;99.90
21834;DHT22;11079;51.092;3.458;2023-09-19T04:52:45;14.50;99.90
21834;DHT22;11079;51.092;3.458;2023-09-19T04:55:14;14.60;99.90
21834;DHT22;11079;51.092;3.458;2023-09-19T04:57:49;14.50;99.90
21834;DHT22;11079;51.092;3.458;2023-09-19T05:00:17;14.50;99.90
21834;DHT22;11079;51.092;3.458;2023-09-19T05:02:45;14.60;99.90
21834;DHT22;11079;51.092;3.458;2023-09-19T05:05:11;14.70;99.90
21834;DHT22;11079;51.092;3.458;2023-09-19T05:07:43;14.80;99.90
21834;DHT22;11079;51.092;3.458;2023-09-19T05:10:09;14.80;99.90
21834;DHT22;11079;51.092;3.458;2023-09-19T05:12:39;14.80;99.90
21834;DHT22;11079;51.092;3.458;2023-09-19T05:15:05;14.80;99.90
21834;DHT22;11079;51.092;3.458;2023-09-19T05:17:33;14.80;99.90
21834;DHT22;11079;51.092;3.458;2023-09-19T05:19:59;14.80;99.90
21834;DHT22;11079;51.092;3.458;2023-09-19T05:22:31;14.70;99.90
21834;DHT22;11079;51.092;3.458;2023-09-19T05:24:58;14.60;99.90
21834;DHT22;11079;51.092;3.458;2023-09-19T05:27:24;14.60;99.90
21834;DHT22;11079;51.092;3.458;2023-09-19T05:29:49;14.60;99.90
21834;DHT22;11079;51.092;3.458;2023-09-19T05:32:18;14.50;99.90
21834;DHT22;11079;51.092;3.458;2023-09-19T05:34:45;14.70;99.90
21834;DHT22;11079;51.092;3.458;2023-09-19T05:37:11;14.80;99.90
21834;DHT22;11079;51.092;3.458;2023-09-19T05:39:36;14.80;99.90
21834;DHT22;11079;51.092;3.458;2023-09-19T05:42:03;14.80;99.90
21834;DHT22;11079;51.092;3.458;2023-09-19T05:44:29;14.70;99.90
21834;DHT22;11079;51.092;3.458;2023-09-19T05:46:54;14.80;99.90
21834;DHT22;11079;51.092;3.458;2023-09-19T05:49:22;14.70;99.90
21834;DHT22;11079;51.092;3.458;2023-09-19T05:51:49;14.90;99.90
21834;DHT22;11079;51.092;3.458;2023-09-19T05:54:16;15.00;99.90
21834;DHT22;11079;51.092;3.458;2023-09-19T05:56:45;14.90;99.90
21834;DHT22;11079;51.092;3.458;2023-09-19T05:59:12;15.00;99.90
21834;DHT22;11079;51.092;3.458;2023-09-19T06:01:42;14.90;99.90
21834;DHT22;11079;51.092;3.458;2023-09-19T06:04:07;14.90;99.90
21834;DHT22;11079;51.092;3.458;2023-09-19T06:06:33;14.90;99.90
21834;DHT22;11079;51.092;3.458;2023-09-19T06:09:02;15.00;99.90
21834;DHT22;11079;51.092;3.458;2023-09-19T06:11:30;15.00;99.90
21834;DHT22;11079;51.092;3.458;2023-09-19T06:13:58;15.00;99.90
21834;DHT22;11079;51.092;3.458;2023-09-19T06:16:25;15.20;99.90
21834;DHT22;11079;51.092;3.458;2023-09-19T06:18:51;15.20;99.90
21834;DHT22;11079;51.092;3.458;2023-09-19T06:21:18;15.20;99.90
21834;DHT22;11079;51.092;3.458;2023-09-19T06:23:44;15.40;99.90
21834;DHT22;11079;51.092;3.458;2023-09-19T06:26:09;15.30;99.90
21834;DHT22;11079;51.092;3.458;2023-09-19T06:28:35;15.30;99.90
21834;DHT22;11079;51.092;3.458;2023-09-19T06:31:02;15.40;99.90
21834;DHT22;11079;51.092;3.458;2023-09-19T06:33:28;15.50;99.90
21834;DHT22;11079;51.092;3.458;2023-09-19T06:35:56;15.60;99.90
21834;DHT22;11079;51.092;3.458;2023-09-19T06:38:25;15.60;99.90
21834;DHT22;11079;51.092;3.458;2023-09-19T06:40:51;15.70;99.90
21834;DHT22;11079;51.092;3.458;2023-09-19T06:43:16;15.70;99.90
21834;DHT22;11079;51.092;3.458;2023-09-19T06:45:42;15.90;99.90
21834;DHT22;11079;51.092;3.458;2023-09-19T06:48:08;15.90;99.90
21834;DHT22;11079;51.092;3.458;2023-09-19T06:50:35;15.90;99.90
21834;DHT22;11079;51.092;3.458;2023-09-19T06:53:01;15.90;99.90
21834;DHT22;11079;51.092;3.458;2023-09-19T06:55:27;15.90;99.90
21834;DHT22;11079;51.092;3.458;2023-09-19T06:57:53;16.00;99.90
21834;DHT22;11079;51.092;3.458;2023-09-19T07:00:20;16.30;99.90
21834;DHT22;11079;51.092;3.458;2023-09-19T07:03:04;16.50;99.90
21834;DHT22;11079;51.092;3.458;2023-09-19T07:05:34;16.90;99.90
21834;DHT22;11079;51.092;3.458;2023-09-19T07:08:03;17.00;99.90
21834;DHT22;11079;51.092;3.458;2023-09-19T07:10:30;17.20;99.90
21834;DHT22;11079;51.092;3.458;2023-09-19T07:13:00;17.40;99.90
21834;DHT22;11079;51.092;3.458;2023-09-19T07:15:27;17.80;99.90
21834;DHT22;11079;51.092;3.458;2023-09-19T07:17:54;17.70;99.90
21834;DHT22;11079;51.092;3.458;2023-09-19T07:20:22;17.80;99.90
21834;DHT22;11079;51.092;3.458;2023-09-19T07:22:49;17.80;99.90
21834;DHT22;11079;51.092;3.458;2023-09-19T07:25:16;17.90;99.90
21834;DHT22;11079;51.092;3.458;2023-09-19T07:27:42;18.10;99.90
21834;DHT22;11079;51.092;3.458;2023-09-19T07:30:12;18.10;99.90
21834;DHT22;11079;51.092;3.458;2023-09-19T07:32:38;18.10;99.90
21834;DHT22;11079;51.092;3.458;2023-09-19T07:35:04;18.20;99.90
21834;DHT22;11079;51.092;3.458;2023-09-19T07:37:31;18.60;99.90
21834;DHT22;11079;51.092;3.458;2023-09-19T07:40:03;18.60;99.90
21834;DHT22;11079;51.092;3.458;2023-09-19T07:42:36;18.60;99.90
21834;DHT22;11079;51.092;3.458;2023-09-19T07:45:07;18.70;99.90
21834;DHT22;11079;51.092;3.458;2023-09-19T07:47:33;18.50;99.90
21834;DHT22;11079;51.092;3.458;2023-09-19T07:50:00;18.40;99.90
21834;DHT22;11079;51.092;3.458;2023-09-19T07:52:28;18.00;99.90
21834;DHT22;11079;51.092;3.458;2023-09-19T07:54:55;18.10;99.90
21834;DHT22;11079;51.092;3.458;2023-09-19T07:57:23;18.10;99.90
21834;DHT22;11079;51.092;3.458;2023-09-19T07:59:48;18.30;99.90
21834;DHT22;11079;51.092;3.458;2023-09-19T08:02:14;18.70;99.90
21834;DHT22;11079;51.092;3.458;2023-09-19T08:04:44;18.60;99.90
21834;DHT22;11079;51.092;3.458;2023-09-19T08:07:12;18.30;99.90
21834;DHT22;11079;51.092;3.458;2023-09-19T08:09:38;18.20;99.90
21834;DHT22;11079;51.092;3.458;2023-09-19T08:12:05;18.30;99.90
21834;DHT22;11079;51.092;3.458;2023-09-19T08:14:33;18.60;99.90
21834;DHT22;11079;51.092;3.458;2023-09-19T08:16:59;18.60;99.90
21834;DHT22;11079;51.092;3.458;2023-09-19T08:19:26;18.70;99.90
21834;DHT22;11079;51.092;3.458;2023-09-19T08:21:58;18.70;99.90
21834;DHT22;11079;51.092;3.458;2023-09-19T08:24:27;18.70;99.90
21834;DHT22;11079;51.092;3.458;2023-09-19T08:26:57;18.80;99.90
21834;DHT22;11079;51.092;3.458;2023-09-19T08:29:24;18.90;99.90
21834;DHT22;11079;51.092;3.458;2023-09-19T08:31:57;19.20;99.90
21834;DHT22;11079;51.092;3.458;2023-09-19T08:34:23;19.00;99.90
21834;DHT22;11079;51.092;3.458;2023-09-19T08:36:53;18.80;99.90
21834;DHT22;11079;51.092;3.458;2023-09-19T08:39:25;18.90;99.90
21834;DHT22;11079;51.092;3.458;2023-09-19T08:41:58;19.10;99.90
21834;DHT22;11079;51.092;3.458;2023-09-19T08:44:28;18.90;99.90
21834;DHT22;11079;51.092;3.458;2023-09-19T08:47:15;19.00;99.90
21834;DHT22;11079;51.092;3.458;2023-09-19T08:50:25;19.20;99.90
21834;DHT22;11079;51.092;3.458;2023-09-19T08:52:52;19.30;99.90
21834;DHT22;11079;51.092;3.458;2023-09-19T08:55:25;19.30;99.90
21834;DHT22;11079;51.092;3.458;2023-09-19T08:57:52;19.60;99.90
21834;DHT22;11079;51.092;3.458;2023-09-19T09:00:24;19.70;99.90
21834;DHT22;11079;51.092;3.458;2023-09-19T09:02:56;19.60;99.90
21834;DHT22;11079;51.092;3.458;2023-09-19T09:05:24;19.50;99.90
21834;DHT22;11079;51.092;3.458;2023-09-19T09:07:50;19.30;99.90
21834;DHT22;11079;51.092;3.458;2023-09-19T09:10:20;19.20;99.90
21834;DHT22;11079;51.092;3.458;2023-09-19T09:12:51;19.20;99.90
21834;DHT22;11079;51.092;3.458;2023-09-19T09:15:22;19.20;99.90
21834;DHT22;11079;51.092;3.458;2023-09-19T09:17:49;19.60;99.90
21834;DHT22;11079;51.092;3.458;2023-09-19T09:20:17;20.20;99.90
21834;DHT22;11079;51.092;3.458;2023-09-19T09:22:54;20.90;99.90
21834;DHT22;11079;51.092;3.458;2023-09-19T09:25:21;21.10;99.90
21834;DHT22;11079;51.092;3.458;2023-09-19T09:28:00;21.50;99.90
21834;DHT22;11079;51.092;3.458;2023-09-19T09:30:37;22.30;99.90
21834;DHT22;11079;51.092;3.458;2023-09-19T09:33:13;22.50;99.90
21834;DHT22;11079;51.092;3.458;2023-09-19T09:35:48;23.50;99.90
21834;DHT22;11079;51.092;3.458;2023-09-19T09:38:26;24.40;99.90
21834;DHT22;11079;51.092;3.458;2023-09-19T09:40:59;24.50;99.90
21834;DHT22;11079;51.092;3.458;2023-09-19T09:43:35;24.60;99.90
21834;DHT22;11079;51.092;3.458;2023-09-19T09:46:09;24.60;99.90
21834;DHT22;11079;51.092;3.458;2023-09-19T09:51:43;23.40;99.90
21834;DHT22;11079;51.092;3.458;2023-09-19T09:54:15;22.80;99.90
21834;DHT22;11079;51.092;3.458;2023-09-19T09:57:00;23.00;99.90
21834;DHT22;11079;51.092;3.458;2023-09-19T10:02:20;23.10;99.90
21834;DHT22;11079;51.092;3.458;2023-09-19T10:04:53;22.70;99.90
21834;DHT22;11079;51.092;3.458;2023-09-19T10:07:38;22.30;99.90
21834;DHT22;11079;51.092;3.458;2023-09-19T10:10:07;22.30;99.90
21834;DHT22;11079;51.092;3.458;2023-09-19T10:12:46;22.60;99.90
21834;DHT22;11079;51.092;3.458;2023-09-19T10:15:15;24.00;99.90
21834;DHT22;11079;51.092;3.458;2023-09-19T10:17:43;25.40;99.90
21834;DHT22;11079;51.092;3.458;2023-09-19T10:20:16;26.50;99.90
21834;DHT22;11079;51.092;3.458;2023-09-19T10:23:09;27.10;99.90
21834;DHT22;11079;51.092;3.458;2023-09-19T10:25:37;26.00;99.90
21834;DHT22;11079;51.092;3.458;2023-09-19T10:28:09;25.30;99.90
21834;DHT22;11079;51.092;3.458;2023-09-19T10:30:45;25.50;99.90
21834;DHT22;11079;51.092;3.458;2023-09-19T10:33:25;25.30;99.90
21834;DHT22;11079;51.092;3.458;2023-09-19T10:35:58;24.70;99.90
21834;DHT22;11079;51.092;3.458;2023-09-19T10:38:26;24.60;99.90
21834;DHT22;11079;51.092;3.458;2023-09-19T10:40:55;25.50;99.90
21834;DHT22;11079;51.092;3.458;2023-09-19T10:43:30;25.70;99.90
21834;DHT22;11079;51.092;3.458;2023-09-19T10:46:01;25.70;99.90
21834;DHT22;11079;51.092;3.458;2023-09-19T10:48:27;25.10;99.90
21834;DHT22;11079;51.092;3.458;2023-09-19T10:50:57;24.20;99.90
21834;DHT22;11079;51.092;3.458;2023-09-19T10:53:26;23.50;99.90
21834;DHT22;11079;51.092;3.458;2023-09-19T10:55:57;22.90;99.90
21834;DHT22;11079;51.092;3.458;2023-09-19T10:58:29;22.20;99.90
21834;DHT22;11079;51.092;3.458;2023-09-19T11:00:59;22.30;99.90
21834;DHT22;11079;51.092;3.458;2023-09-19T11:03:33;22.20;99.90
21834;DHT22;11079;51.092;3.458;2023-09-19T11:11:50;22.50;99.90
21834;DHT22;11079;51.092;3.458;2023-09-19T11:30:37;21.30;99.90
21834;DHT22;11079;51.092;3.458;2023-09-19T11:33:17;21.10;99.90
21834;DHT22;11079;51.092;3.458;2023-09-19T11:43:47;22.40;99.90
21834;DHT22;11079;51.092;3.458;2023-09-19T11:46:12;23.10;99.90
21834;DHT22;11079;51.092;3.458;2023-09-19T11:48:45;23.10;99.90
21834;DHT22;11079;51.092;3.458;2023-09-19T11:51:14;22.70;99.90
21834;DHT22;11079;51.092;3.458;2023-09-19T11:53:45;22.50;99.90
21834;DHT22;11079;51.092;3.458;2023-09-19T11:56:18;23.20;99.90
21834;DHT22;11079;51.092;3.458;2023-09-19T11:58:49;23.50;99.90
21834;DHT22;11079;51.092;3.458;2023-09-19T12:01:30;23.60;99.90
21834;DHT22;11079;51.092;3.458;2023-09-19T12:04:01;23.80;99.90
21834;DHT22;11079;51.092;3.458;2023-09-19T12:06:28;23.40;99.90
21834;DHT22;11079;51.092;3.458;2023-09-19T12:09:19;23.40;99.90
21834;DHT22;11079;51.092;3.458;2023-09-19T12:11:45;23.30;99.90
21834;DHT22;11079;51.092;3.458;2023-09-19T12:14:11;22.90;99.90
21834;DHT22;11079;51.092;3.458;2023-09-19T12:16:53;22.60;99.90
21834;DHT22;11079;51.092;3.458;2023-09-19T12:19:21;22.20;99.90
21834;DHT22;11079;51.092;3.458;2023-09-19T12:21:55;22.70;99.90
21834;DHT22;11079;51.092;3.458;2023-09-19T12:24:40;23.40;99.90
21834;DHT22;11079;51.092;3.458;2023-09-19T12:27:10;22.90;99.90
21834;DHT22;11079;51.092;3.458;2023-09-19T12:29:48;22.60;99.90
21834;DHT22;11079;51.092;3.458;2023-09-19T12:32:42;22.00;99.90
21834;DHT22;11079;51.092;3.458;2023-09-19T12:35:27;22.00;99.90
21834;DHT22;11079;51.092;3.458;2023-09-19T12:37:54;21.90;99.90
21834;DHT22;11079;51.092;3.458;2023-09-19T12:40:22;21.60;99.90
21834;DHT22;11079;51.092;3.458;2023-09-19T12:43:21;21.70;99.90
21834;DHT22;11079;51.092;3.458;2023-09-19T12:46:09;21.60;99.90
21834;DHT22;11079;51.092;3.458;2023-09-19T12:48:35;21.40;99.90
21834;DHT22;11079;51.092;3.458;2023-09-19T12:51:35;21.70;99.90
21834;DHT22;11079;51.092;3.458;2023-09-19T12:54:04;21.90;99.90
21834;DHT22;11079;51.092;3.458;2023-09-19T12:56:44;22.30;99.90
21834;DHT22;11079;51.092;3.458;2023-09-19T12:59:14;22.30;99.90
21834;DHT22;11079;51.092;3.458;2023-09-19T13:01:41;21.90;99.90
21834;DHT22;11079;51.092;3.458;2023-09-19T13:04:19;21.80;99.90
21834;DHT22;11079;51.092;3.458;2023-09-19T13:06:50;21.70;99.90
21834;DHT22;11079;51.092;3.458;2023-09-19T13:09:17;21.90;99.90
21834;DHT22;11079;51.092;3.458;2023-09-19T13:11:45;22.00;99.90
21834;DHT22;11079;51.092;3.458;2023-09-19T13:17:02;21.70;99.90
21834;DHT22;11079;51.092;3.458;2023-09-19T13:22:00;21.40;99.90
21834;DHT22;11079;51.092;3.458;2023-09-19T13:24:29;21.40;99.90
21834;DHT22;11079;51.092;3.458;2023-09-19T13:26:58;21.30;99.90
21834;DHT22;11079;51.092;3.458;2023-09-19T13:29:25;21.20;99.90
21834;DHT22;11079;51.092;3.458;2023-09-19T13:31:53;21.10;99.90
21834;DHT22;11079;51.092;3.458;2023-09-19T13:34:19;21.00;99.90
21834;DHT22;11079;51.092;3.458;2023-09-19T13:36:46;20.80;99.90
21834;DHT22;11079;51.092;3.458;2023-09-19T13:39:15;20.90;99.90
21834;DHT22;11079;51.092;3.458;2023-09-19T13:41:44;21.00;99.90
21834;DHT22;11079;51.092;3.458;2023-09-19T13:44:11;21.20;99.90
21834;DHT22;11079;51.092;3.458;2023-09-19T13:46:38;21.60;99.90
21834;DHT22;11079;51.092;3.458;2023-09-19T13:49:04;21.90;99.90
21834;DHT22;11079;51.092;3.458;2023-09-19T13:51:31;22.00;99.90
21834;DHT22;11079;51.092;3.458;2023-09-19T13:53:57;22.00;99.90
21834;DHT22;11079;51.092;3.458;2023-09-19T13:56:22;21.80;99.90
21834;DHT22;11079;51.092;3.458;2023-09-19T13:58:49;21.40;99.90
21834;DHT22;11079;51.092;3.458;2023-09-19T14:01:15;21.20;99.90
21834;DHT22;11079;51.092;3.458;2023-09-19T14:03:42;21.00;99.90
21834;DHT22;11079;51.092;3.458;2023-09-19T14:06:13;20.80;99.90
21834;DHT22;11079;51.092;3.458;2023-09-19T14:08:38;20.70;99.90
21834;DHT22;11079;51.092;3.458;2023-09-19T14:11:08;20.60;99.90
21834;DHT22;11079;51.092;3.458;2023-09-19T14:13:34;20.50;99.90
21834;DHT22;11079;51.092;3.458;2023-09-19T14:16:07;20.50;99.90
21834;DHT22;11079;51.092;3.458;2023-09-19T14:18:35;20.70;99.90
21834;DHT22;11079;51.092;3.458;2023-09-19T14:21:18;20.90;99.90
21834;DHT22;11079;51.092;3.458;2023-09-19T14:23:44;20.80;99.90
21834;DHT22;11079;51.092;3.458;2023-09-19T14:26:11;21.00;99.90
21834;DHT22;11079;51.092;3.458;2023-09-19T14:28:36;21.10;99.90
21834;DHT22;11079;51.092;3.458;2023-09-19T14:31:11;20.90;99.90
21834;DHT22;11079;51.092;3.458;2023-09-19T14:33:52;20.60;99.90
21834;DHT22;11079;51.092;3.458;2023-09-19T14:36:18;20.50;99.90
21834;DHT22;11079;51.092;3.458;2023-09-19T14:38:44;20.50;99.90
21834;DHT22;11079;51.092;3.458;2023-09-19T14:41:10;20.50;99.90
21834;DHT22;11079;51.092;3.458;2023-09-19T14:43:38;20.20;99.90
21834;DHT22;11079;51.092;3.458;2023-09-19T14:46:12;20.20;99.90
21834;DHT22;11079;51.092;3.458;2023-09-19T14:48:55;20.10;99.90
21834;DHT22;11079;51.092;3.458;2023-09-19T14:51:22;20.20;99.90
21834;DHT22;11079;51.092;3.458;2023-09-19T14:53:48;20.20;99.90
21834;DHT22;11079;51.092;3.458;2023-09-19T14:56:34;20.20;99.90
21834;DHT22;11079;51.092;3.458;2023-09-19T14:59:02;20.00;99.90
21834;DHT22;11079;51.092;3.458;2023-09-19T15:01:32;19.90;99.90
21834;DHT22;11079;51.092;3.458;2023-09-19T15:04:16;20.00;99.90
21834;DHT22;11079;51.092;3.458;2023-09-19T15:07:16;20.10;99.90
21834;DHT22;11079;51.092;3.458;2023-09-19T15:10:12;20.00;99.90
21834;DHT22;11079;51.092;3.458;2023-09-19T15:12:39;20.00;99.90
21834;DHT22;11079;51.092;3.458;2023-09-19T15:15:09;20.00;99.90
21834;DHT22;11079;51.092;3.458;2023-09-19T15:17:38;19.90;99.90
21834;DHT22;11079;51.092;3.458;2023-09-19T15:20:06;19.90;99.90
21834;DHT22;11079;51.092;3.458;2023-09-19T15:22:34;19.90;99.90
21834;DHT22;11079;51.092;3.458;2023-09-19T15:25:01;19.70;99.90
21834;DHT22;11079;51.092;3.458;2023-09-19T15:27:29;19.70;99.90
21834;DHT22;11079;51.092;3.458;2023-09-19T15:29:57;19.70;99.90
21834;DHT22;11079;51.092;3.458;2023-09-19T15:32:24;19.70;99.90
21834;DHT22;11079;51.092;3.458;2023-09-19T15:34:51;19.70;99.90
21834;DHT22;11079;51.092;3.458;2023-09-19T15:37:17;19.70;99.90
21834;DHT22;11079;51.092;3.458;2023-09-19T15:39:43;19.70;99.90
21834;DHT22;11079;51.092;3.458;2023-09-19T15:42:10;19.70;99.90
21834;DHT22;11079;51.092;3.458;2023-09-19T15:44:36;19.60;99.90
21834;DHT22;11079;51.092;3.458;2023-09-19T15:47:04;19.50;99.90
21834;DHT22;11079;51.092;3.458;2023-09-19T15:49:49;19.50;99.90
21834;DHT22;11079;51.092;3.458;2023-09-19T15:52:31;19.60;99.90
21834;DHT22;11079;51.092;3.458;2023-09-19T15:54:57;19.40;99.90
21834;DHT22;11079;51.092;3.458;2023-09-19T15:57:23;19.50;99.90
21834;DHT22;11079;51.092;3.458;2023-09-19T15:59:49;19.50;99.90
21834;DHT22;11079;51.092;3.458;2023-09-19T16:02:15;19.40;99.90
21834;DHT22;11079;51.092;3.458;2023-09-19T16:04:42;19.30;99.90
21834;DHT22;11079;51.092;3.458;2023-09-19T16:07:09;19.20;99.90
21834;DHT22;11079;51.092;3.458;2023-09-19T16:09:34;19.10;99.90
21834;DHT22;11079;51.092;3.458;2023-09-19T16:12:00;18.90;99.90
21834;DHT22;11079;51.092;3.458;2023-09-19T16:14:26;18.70;99.90
21834;DHT22;11079;51.092;3.458;2023-09-19T16:16:54;18.40;99.90
21834;DHT22;11079;51.092;3.458;2023-09-19T16:19:20;18.00;99.90
21834;DHT22;11079;51.092;3.458;2023-09-19T16:21:45;17.90;99.90
21834;DHT22;11079;51.092;3.458;2023-09-19T16:24:11;17.90;99.90
21834;DHT22;11079;51.092;3.458;2023-09-19T16:26:38;17.80;99.90
21834;DHT22;11079;51.092;3.458;2023-09-19T16:29:04;17.70;99.90
21834;DHT22;11079;51.092;3.458;2023-09-19T16:31:30;17.70;99.90
21834;DHT22;11079;51.092;3.458;2023-09-19T16:34:00;17.60;99.90
21834;DHT22;11079;51.092;3.458;2023-09-19T16:36:26;17.50;99.90
21834;DHT22;11079;51.092;3.458;2023-09-19T16:38:53;17.50;99.90
21834;DHT22;11079;51.092;3.458;2023-09-19T16:41:19;17.50;99.90
21834;DHT22;11079;51.092;3.458;2023-09-19T16:43:45;17.50;99.90